Time;durP1;ratioP1;P1;durP2;ratioP2;P2;SDS_P1;SDS_P2;PMS_P1;PMS_P2;Temp;Humidity;BMP_temperature;BMP_pressure;BME280_temperature;BME280_humidity;BME280_pressure;Samples;Min_cycle;Max_cycle;Signal;HPM_P1;HPM_P2
2022/09/13 00:02:07;;;;;;;5.30;3.40;;;12.90;99.90;;;;;;5031479;28;20052;-79
2022/09/13 00:04:33;;;;;;;6.00;3.20;;;12.90;99.90;;;;;;5031812;28;20056;-77
2022/09/13 00:06:59;;;;;;;5.72;3.47;;;12.80;99.90;;;;;;5031858;28;20044;-77
2022/09/13 00:09:25;;;;;;;9.90;3.90;;;12.60;99.90;;;;;;5030785;28;20037;-77
2022/09/13 00:11:52;;;;;;;6.22;3.50;;;12.50;99.90;;;;;;5033541;28;20037;-77
2022/09/13 00:14:18;;;;;;;6.47;4.05;;;12.40;99.90;;;;;;5032767;28;20048;-78
2022/09/13 00:16:44;;;;;;;5.70;3.80;;;12.40;99.90;;;;;;5033021;28;20025;-77
2022/09/13 00:19:10;;;;;;;9.85;4.20;;;12.50;99.90;;;;;;5036332;28;20030;-79
2022/09/13 00:21:36;;;;;;;4.97;3.67;;;12.50;99.90;;;;;;5048839;28;20033;-77
2022/09/13 00:24:02;;;;;;;5.70;3.83;;;12.40;99.90;;;;;;5038372;28;20048;-77
2022/09/13 00:26:29;;;;;;;8.45;4.00;;;12.40;99.90;;;;;;5035239;28;20816;-78
2022/09/13 00:28:57;;;;;;;5.55;4.20;;;12.30;99.90;;;;;;5033678;28;20046;-78
2022/09/13 00:31:26;;;;;;;6.85;3.85;;;12.20;99.90;;;;;;5034957;28;20045;-78
2022/09/13 00:33:52;;;;;;;6.35;4.20;;;12.20;99.90;;;;;;5037583;28;20049;-76
2022/09/13 00:36:19;;;;;;;4.93;3.63;;;12.10;99.90;;;;;;5035561;28;20040;-76
2022/09/13 00:38:45;;;;;;;7.03;3.83;;;12.10;99.90;;;;;;5033970;28;20386;-76
2022/09/13 00:41:16;;;;;;;6.18;4.10;;;12.10;99.90;;;;;;5034487;28;20044;-77
2022/09/13 00:43:54;;;;;;;7.28;4.75;;;12.10;99.90;;;;;;5034337;28;20044;-76
2022/09/13 00:46:28;;;;;;;5.75;4.43;;;12.10;99.90;;;;;;5034710;28;20025;-76
2022/09/13 00:49:16;;;;;;;6.40;3.40;;;12.20;99.90;;;;;;5030660;28;20033;-77
2022/09/13 00:51:48;;;;;;;6.75;4.28;;;12.00;99.90;;;;;;5018789;28;20041;-76
2022/09/13 00:54:16;;;;;;;7.80;4.03;;;11.90;99.90;;;;;;5034139;28;20045;-77
2022/09/13 00:56:49;;;;;;;6.05;3.90;;;11.80;99.90;;;;;;5034620;28;20056;-76
2022/09/13 00:59:30;;;;;;;5.60;3.65;;;11.70;99.90;;;;;;5041149;28;20068;-77
2022/09/13 01:01:57;;;;;;;5.65;3.78;;;11.70;99.90;;;;;;5053337;28;20033;-76
2022/09/13 01:04:26;;;;;;;5.97;4.05;;;11.70;99.90;;;;;;5053844;28;20040;-76
2022/09/13 01:06:57;;;;;;;6.13;3.65;;;11.70;99.90;;;;;;5054798;28;20382;-76
2022/09/13 01:09:24;;;;;;;6.13;4.20;;;11.80;99.90;;;;;;5053846;28;20033;-76
2022/09/13 01:12:09;;;;;;;6.63;3.97;;;11.70;99.90;;;;;;5053190;28;20043;-76
2022/09/13 01:14:36;;;;;;;7.30;4.22;;;11.60;99.90;;;;;;5054196;28;20245;-77
2022/09/13 01:17:03;;;;;;;5.40;4.38;;;11.50;99.90;;;;;;5054512;28;20032;-77
2022/09/13 01:19:29;;;;;;;5.60;3.85;;;11.50;99.90;;;;;;5053592;28;20032;-77
2022/09/13 01:22:01;;;;;;;9.73;4.80;;;11.60;99.90;;;;;;5053290;28;20044;-77
2022/09/13 01:24:51;;;;;;;6.05;3.95;;;11.70;99.90;;;;;;5053717;28;20509;-76
2022/09/13 01:27:17;;;;;;;5.90;4.63;;;11.70;99.90;;;;;;5056997;28;20397;-77
2022/09/13 01:30:10;;;;;;;5.30;4.20;;;11.70;99.90;;;;;;5036606;28;20029;-76
2022/09/13 01:32:58;;;;;;;6.20;4.50;;;11.70;99.90;;;;;;5052720;28;20065;-75
2022/09/13 01:35:47;;;;;;;5.95;4.10;;;11.70;99.90;;;;;;5053462;28;20033;-75
2022/09/13 01:38:25;;;;;;;4.90;3.75;;;11.70;99.90;;;;;;5053335;28;20029;-75
2022/09/13 01:41:05;;;;;;;5.82;4.10;;;11.70;99.90;;;;;;5053571;28;20033;-78
2022/09/13 01:44:09;;;;;;;5.05;3.42;;;11.60;99.90;;;;;;5052927;28;20033;-75
2022/09/13 01:46:38;;;;;;;5.75;4.07;;;11.60;99.90;;;;;;5053610;28;20032;-75
2022/09/13 01:49:26;;;;;;;6.53;4.03;;;11.50;99.90;;;;;;5054037;28;20029;-76
2022/09/13 01:52:01;;;;;;;6.07;4.47;;;11.60;99.90;;;;;;5052297;28;20033;-74
2022/09/13 01:55:00;;;;;;;6.60;3.67;;;11.60;99.90;;;;;;5053146;28;20680;-74
2022/09/13 01:58:00;;;;;;;8.23;4.45;;;11.60;99.90;;;;;;5052954;28;20490;-77
2022/09/13 02:00:30;;;;;;;5.25;3.95;;;11.60;99.90;;;;;;5027494;28;20045;-77
2022/09/13 02:03:04;;;;;;;7.90;4.43;;;11.60;99.90;;;;;;5048500;28;20029;-77
2022/09/13 02:05:53;;;;;;;5.75;3.58;;;11.50;99.90;;;;;;5052805;28;20040;-77
2022/09/13 02:08:36;;;;;;;5.80;4.18;;;11.50;99.90;;;;;;5052918;28;20040;-77
2022/09/13 02:11:11;;;;;;;5.55;4.32;;;11.50;99.90;;;;;;5052255;28;20025;-79
2022/09/13 02:13:59;;;;;;;9.85;4.93;;;11.40;99.90;;;;;;5051361;28;20132;-78
2022/09/13 02:16:32;;;;;;;6.25;4.07;;;11.40;99.90;;;;;;5052750;28;20044;-77
2022/09/13 02:19:04;;;;;;;6.20;4.55;;;11.40;99.90;;;;;;5056972;28;20383;-79
2022/09/13 02:21:38;;;;;;;6.20;4.43;;;11.40;99.90;;;;;;5051143;28;20025;-78
2022/09/13 02:24:12;;;;;;;8.18;5.72;;;11.40;99.90;;;;;;5053259;28;20041;-75
2022/09/13 02:26:39;;;;;;;5.38;3.92;;;11.40;99.90;;;;;;5047325;28;20044;-79
2022/09/13 02:29:18;;;;;;;7.22;4.43;;;11.40;99.90;;;;;;5052860;28;20390;-78
2022/09/13 02:31:57;;;;;;;7.43;4.43;;;11.40;99.90;;;;;;5046566;28;20044;-77
2022/09/13 02:34:34;;;;;;;8.30;3.90;;;11.40;99.90;;;;;;5052439;28;20902;-77
2022/09/13 02:37:03;;;;;;;7.18;3.30;;;11.30;99.90;;;;;;5053151;28;20044;-76
2022/09/13 02:39:31;;;;;;;7.80;4.40;;;11.30;99.90;;;;;;5051856;28;20044;-74
2022/09/13 02:42:07;;;;;;;5.25;3.85;;;11.20;99.90;;;;;;5051341;28;20037;-77
2022/09/13 02:44:45;;;;;;;8.45;4.20;;;11.20;99.90;;;;;;5051443;28;20839;-77
2022/09/13 02:47:39;;;;;;;9.07;4.22;;;11.30;99.90;;;;;;5052286;28;20132;-80
2022/09/13 02:50:43;;;;;;;7.60;4.05;;;11.30;99.90;;;;;;5052435;28;20044;-78
2022/09/13 02:53:22;;;;;;;8.30;4.60;;;11.30;99.90;;;;;;5051332;28;20036;-79
2022/09/13 02:56:02;;;;;;;8.70;4.93;;;11.30;99.90;;;;;;5053001;28;20033;-76
2022/09/13 02:58:56;;;;;;;7.35;5.03;;;11.30;99.90;;;;;;5051614;28;20039;-77
2022/09/13 03:01:23;;;;;;;7.88;4.53;;;11.40;99.90;;;;;;5050430;28;20052;-77
2022/09/13 03:03:52;;;;;;;9.15;4.50;;;11.30;99.90;;;;;;5052247;28;20037;-77
2022/09/13 03:06:26;;;;;;;6.78;5.15;;;11.40;99.90;;;;;;5051442;28;20029;-78
2022/09/13 03:08:56;;;;;;;7.57;4.45;;;11.30;99.90;;;;;;5048951;28;20040;-76
2022/09/13 03:11:38;;;;;;;8.38;4.90;;;11.30;99.90;;;;;;5049762;28;20040;-77
2022/09/13 03:14:29;;;;;;;10.93;5.38;;;11.30;99.90;;;;;;5051226;28;20052;-77
2022/09/13 03:17:45;;;;;;;8.45;4.82;;;11.30;99.90;;;;;;5052297;28;20033;-77
2022/09/13 03:20:33;;;;;;;8.60;5.70;;;11.30;99.90;;;;;;4951730;29;20515;-77
2022/09/13 03:23:10;;;;;;;8.10;5.00;;;11.30;99.90;;;;;;4946194;29;20122;-77
2022/09/13 03:25:59;;;;;;;10.43;5.50;;;11.30;99.90;;;;;;5022790;28;20434;-77
2022/09/13 03:28:29;;;;;;;6.72;4.63;;;11.30;99.90;;;;;;5051116;28;20040;-78
2022/09/13 03:31:07;;;;;;;9.98;5.80;;;11.30;99.90;;;;;;5050496;28;20033;-79
2022/09/13 03:33:48;;;;;;;11.05;5.40;;;11.40;99.90;;;;;;5032743;28;20243;-78
2022/09/13 03:36:23;;;;;;;8.13;4.55;;;11.50;99.90;;;;;;5033666;28;20033;-80
2022/09/13 03:39:15;;;;;;;8.73;5.32;;;11.50;99.90;;;;;;5052055;28;20041;-78
2022/09/13 03:41:53;;;;;;;10.07;5.35;;;11.60;99.90;;;;;;5050282;28;20035;-79
2022/09/13 03:44:22;;;;;;;7.68;5.32;;;11.60;99.90;;;;;;5051262;28;20029;-79
2022/09/13 03:46:56;;;;;;;9.05;5.30;;;11.60;99.90;;;;;;5051551;28;20040;-79
2022/09/13 03:49:24;;;;;;;9.77;5.28;;;11.60;99.90;;;;;;5049998;28;20045;-79
2022/09/13 03:51:51;;;;;;;8.57;5.07;;;11.60;99.90;;;;;;5031726;28;20485;-79
2022/09/13 03:54:24;;;;;;;9.88;5.75;;;11.70;99.90;;;;;;5050019;28;20382;-81
2022/09/13 03:57:11;;;;;;;7.45;5.00;;;11.60;99.90;;;;;;5051171;28;20040;-79
2022/09/13 03:59:42;;;;;;;8.85;5.57;;;11.70;99.90;;;;;;5050641;28;20041;-79
2022/09/13 04:02:10;;;;;;;7.90;5.38;;;11.80;99.90;;;;;;5051108;28;20461;-79
2022/09/13 04:04:38;;;;;;;9.13;5.60;;;11.80;99.90;;;;;;5050851;28;20048;-79
2022/09/13 04:07:04;;;;;;;10.73;5.75;;;11.90;99.90;;;;;;5051600;28;20037;-77
2022/09/13 04:09:30;;;;;;;9.27;4.68;;;11.90;99.90;;;;;;5050837;28;20033;-77
2022/09/13 04:11:57;;;;;;;7.00;5.35;;;12.00;99.90;;;;;;5049676;28;20033;-77
2022/09/13 04:14:25;;;;;;;10.50;5.82;;;12.10;99.90;;;;;;5051242;28;20386;-76
2022/09/13 04:16:56;;;;;;;11.40;5.63;;;12.10;99.90;;;;;;5034005;28;20040;-76
2022/09/13 04:19:23;;;;;;;7.22;5.07;;;12.20;99.90;;;;;;5051039;28;20033;-76
2022/09/13 04:21:54;;;;;;;9.63;5.70;;;12.20;99.90;;;;;;5050033;28;20029;-76
2022/09/13 04:24:24;;;;;;;8.98;5.65;;;12.20;99.90;;;;;;5051107;28;20037;-78
2022/09/13 04:26:52;;;;;;;8.77;5.43;;;12.20;99.90;;;;;;5051716;28;20040;-78
2022/09/13 04:29:18;;;;;;;13.52;5.63;;;12.20;99.90;;;;;;5051216;28;20271;-78
2022/09/13 04:31:45;;;;;;;8.57;5.05;;;12.10;99.90;;;;;;5050516;28;20033;-78
2022/09/13 04:34:11;;;;;;;8.30;4.95;;;12.10;99.90;;;;;;5051407;28;20048;-77
2022/09/13 04:36:38;;;;;;;9.88;6.28;;;12.10;99.90;;;;;;5051334;28;20450;-74
2022/09/13 04:39:05;;;;;;;7.38;5.13;;;12.10;99.90;;;;;;5051840;28;20390;-75
2022/09/13 04:41:33;;;;;;;6.95;5.05;;;12.20;99.90;;;;;;5033158;28;20041;-74
2022/09/13 04:44:01;;;;;;;7.05;4.35;;;12.20;99.90;;;;;;5052443;28;20025;-76
2022/09/13 04:46:28;;;;;;;8.23;5.50;;;12.20;99.90;;;;;;5042400;28;20048;-76
2022/09/13 04:48:54;;;;;;;7.68;5.32;;;12.20;99.90;;;;;;5063858;28;20025;-77
2022/09/13 04:51:21;;;;;;;8.18;4.95;;;12.20;99.90;;;;;;5060965;28;20033;-78
2022/09/13 04:53:53;;;;;;;5.25;3.95;;;12.10;99.90;;;;;;5053699;28;20039;-78
2022/09/13 04:56:19;;;;;;;5.72;3.55;;;12.10;99.90;;;;;;5051365;28;20052;-78
2022/09/13 04:58:46;;;;;;;7.40;4.50;;;12.10;99.90;;;;;;5050756;28;20044;-79
2022/09/13 05:01:12;;;;;;;8.27;5.10;;;12.10;99.90;;;;;;5049304;28;20036;-79
2022/09/13 05:03:38;;;;;;;7.38;4.78;;;12.20;99.90;;;;;;5050290;28;20044;-78
2022/09/13 05:06:12;;;;;;;8.35;5.10;;;12.20;99.90;;;;;;5033744;28;20060;-78
2022/09/13 05:08:39;;;;;;;7.18;3.97;;;12.20;99.90;;;;;;5053743;28;20508;-76
2022/09/13 05:11:06;;;;;;;7.68;4.88;;;12.20;99.90;;;;;;5053176;28;20083;-78
2022/09/13 05:13:32;;;;;;;6.07;4.38;;;12.20;99.90;;;;;;5053935;28;20033;-78
2022/09/13 05:16:01;;;;;;;8.90;4.78;;;12.20;99.90;;;;;;5054628;28;20052;-78
2022/09/13 05:18:29;;;;;;;8.02;5.00;;;12.30;99.90;;;;;;5053549;28;20029;-79
2022/09/13 05:20:57;;;;;;;7.82;4.10;;;12.30;99.90;;;;;;5052740;28;20386;-77
2022/09/13 05:23:24;;;;;;;8.32;6.18;;;12.30;99.90;;;;;;5053931;28;20377;-78
2022/09/13 05:26:02;;;;;;;8.52;4.85;;;12.30;99.90;;;;;;5054628;28;20029;-77
2022/09/13 05:28:31;;;;;;;8.98;4.60;;;12.30;99.90;;;;;;5057347;28;20033;-78
2022/09/13 05:31:02;;;;;;;6.28;4.25;;;12.40;99.90;;;;;;5052656;28;20040;-77
2022/09/13 05:33:31;;;;;;;6.07;4.22;;;12.40;99.90;;;;;;5053618;28;20339;-77
2022/09/13 05:35:58;;;;;;;8.18;4.80;;;12.50;99.90;;;;;;5047496;28;20371;-80
2022/09/13 05:38:24;;;;;;;9.75;4.20;;;12.50;99.90;;;;;;5052900;28;20366;-79
2022/09/13 05:40:59;;;;;;;6.85;4.68;;;12.50;99.90;;;;;;5052121;28;20029;-77
2022/09/13 05:43:26;;;;;;;7.95;5.63;;;12.60;99.90;;;;;;5057137;28;20037;-78
2022/09/13 05:46:14;;;;;;;7.65;4.82;;;12.60;99.90;;;;;;5048996;28;20040;-80
2022/09/13 05:48:41;;;;;;;10.32;4.88;;;12.70;99.90;;;;;;5054066;28;20597;-79
2022/09/13 05:51:13;;;;;;;5.72;4.47;;;12.80;99.90;;;;;;5052477;28;20402;-78
2022/09/13 05:53:41;;;;;;;5.88;4.18;;;12.90;99.90;;;;;;5053780;28;20386;-77
2022/09/13 05:56:09;;;;;;;7.32;4.53;;;13.00;99.90;;;;;;5036236;28;20048;-79
2022/09/13 05:58:40;;;;;;;9.38;4.75;;;13.20;99.90;;;;;;5053703;28;20037;-77
2022/09/13 06:01:07;;;;;;;8.63;5.88;;;13.30;99.90;;;;;;5052521;28;20037;-75
2022/09/13 06:03:34;;;;;;;7.82;5.88;;;13.40;99.90;;;;;;5052893;28;20033;-78
2022/09/13 06:06:00;;;;;;;11.05;6.47;;;13.50;99.90;;;;;;5053495;28;20466;-78
2022/09/13 06:08:28;;;;;;;12.18;6.32;;;13.70;99.90;;;;;;5053914;28;20496;-78
2022/09/13 06:11:03;;;;;;;8.88;5.97;;;13.80;99.90;;;;;;5052537;28;20041;-77
2022/09/13 06:13:29;;;;;;;7.63;5.85;;;14.00;99.90;;;;;;5052658;28;20045;-78
2022/09/13 06:15:58;;;;;;;10.50;6.10;;;14.10;99.90;;;;;;5053487;28;20382;-76
2022/09/13 06:18:25;;;;;;;7.78;5.25;;;14.20;99.90;;;;;;5051853;28;20359;-79
2022/09/13 06:20:58;;;;;;;8.57;5.35;;;14.40;99.90;;;;;;5052092;28;20043;-78
2022/09/13 06:23:25;;;;;;;7.30;5.25;;;14.50;99.90;;;;;;5052903;28;20048;-81
2022/09/13 06:26:18;;;;;;;13.57;6.05;;;14.60;99.90;;;;;;5053315;28;20025;-80
2022/09/13 06:28:52;;;;;;;8.65;5.85;;;14.70;99.90;;;;;;5052232;28;20041;-80
2022/09/13 06:31:21;;;;;;;7.63;5.85;;;14.80;99.90;;;;;;5054100;28;20033;-79
2022/09/13 06:33:47;;;;;;;8.05;5.85;;;14.80;99.90;;;;;;5018625;28;20414;-80
2022/09/13 06:36:18;;;;;;;8.82;5.45;;;14.90;99.90;;;;;;5059047;28;20094;-79
2022/09/13 06:38:46;;;;;;;8.93;5.40;;;14.90;99.90;;;;;;5035249;28;20025;-79
2022/09/13 06:41:14;;;;;;;8.55;5.18;;;14.80;99.90;;;;;;5052278;28;20051;-79
2022/09/13 06:43:41;;;;;;;9.80;5.22;;;14.80;99.90;;;;;;5052672;28;20398;-79
2022/09/13 06:46:13;;;;;;;10.25;6.75;;;14.90;99.90;;;;;;5053507;28;20435;-79
2022/09/13 06:48:41;;;;;;;8.95;5.68;;;15.00;99.90;;;;;;5049157;28;20033;-79
2022/09/13 06:51:13;;;;;;;11.82;6.50;;;15.10;99.90;;;;;;5046080;28;20033;-77
2022/09/13 06:53:40;;;;;;;13.63;7.70;;;15.20;99.90;;;;;;5053444;28;20037;-78
2022/09/13 06:56:11;;;;;;;15.45;9.00;;;15.30;99.90;;;;;;5053337;28;20052;-78
2022/09/13 06:58:39;;;;;;;12.40;7.90;;;15.50;99.90;;;;;;5031075;28;20040;-78
2022/09/13 07:01:08;;;;;;;12.93;7.57;;;15.70;99.90;;;;;;5051409;28;20048;-79
2022/09/13 07:03:35;;;;;;;11.38;6.82;;;15.80;99.90;;;;;;5052084;28;20037;-79
2022/09/13 07:06:10;;;;;;;13.93;7.18;;;16.00;99.90;;;;;;5034659;28;20033;-79
2022/09/13 07:08:38;;;;;;;11.55;6.30;;;16.20;99.90;;;;;;5051843;28;20033;-78
2022/09/13 07:11:04;;;;;;;11.15;6.03;;;16.30;99.90;;;;;;5051143;28;20028;-77
2022/09/13 07:13:30;;;;;;;9.23;6.25;;;16.30;99.90;;;;;;5051775;28;20387;-78
2022/09/13 07:16:00;;;;;;;9.20;6.28;;;16.40;99.90;;;;;;5052721;28;20044;-80
2022/09/13 07:18:26;;;;;;;14.40;6.77;;;16.40;99.90;;;;;;5017363;28;20067;-82
2022/09/13 07:21:02;;;;;;;9.88;6.28;;;16.50;99.90;;;;;;5034110;28;20049;-81
2022/09/13 07:23:30;;;;;;;9.48;5.75;;;16.60;99.90;;;;;;5052185;28;20056;-80
2022/09/13 07:26:00;;;;;;;11.00;5.72;;;16.70;99.90;;;;;;5053865;28;20029;-81
2022/09/13 07:28:32;;;;;;;8.65;5.03;;;16.70;99.90;;;;;;5048485;28;20041;-79
2022/09/13 07:31:17;;;;;;;8.07;4.90;;;16.80;99.90;;;;;;5050563;28;20032;-79
2022/09/13 07:33:44;;;;;;;10.50;5.03;;;17.00;99.90;;;;;;5050931;28;20040;-78
2022/09/13 07:36:11;;;;;;;8.02;4.18;;;17.00;99.90;;;;;;5045643;28;20056;-78
2022/09/13 07:38:40;;;;;;;4.72;3.63;;;17.10;99.90;;;;;;5051865;28;20351;-79
2022/09/13 07:41:11;;;;;;;9.23;4.32;;;17.30;99.90;;;;;;5051013;28;20032;-77
2022/09/13 07:43:38;;;;;;;;;;;17.60;99.90;;;;;;5052644;28;20046;-78
2022/09/13 07:46:09;;;;;;;9.93;3.85;;;17.70;99.90;;;;;;5052702;28;19916;-78
2022/09/13 07:48:39;;;;;;;5.88;4.10;;;17.70;99.90;;;;;;5052278;28;20025;-78
2022/09/13 07:51:15;;;;;;;8.70;4.38;;;17.70;99.90;;;;;;5026696;28;20045;-78
2022/09/13 07:53:43;;;;;;;7.32;3.83;;;17.40;99.90;;;;;;5046457;28;20048;-78
2022/09/13 07:56:14;;;;;;;8.40;5.10;;;17.30;99.90;;;;;;5034754;28;20055;-78
2022/09/13 07:58:42;;;;;;;6.40;4.40;;;17.30;99.90;;;;;;5051671;28;20025;-78
2022/09/13 08:01:23;;;;;;;4.75;3.83;;;17.30;99.90;;;;;;5053067;28;20029;-77
2022/09/13 08:03:50;;;;;;;;;;;17.20;99.90;;;;;;5057849;28;20056;-77
2022/09/13 08:06:16;;;;;;;4.57;3.80;;;17.30;99.90;;;;;;5052089;28;19913;-78
2022/09/13 08:08:43;;;;;;;4.57;3.78;;;17.30;99.90;;;;;;5051731;28;20037;-78
2022/09/13 08:11:15;;;;;;;5.63;3.10;;;17.50;99.90;;;;;;5051947;28;20029;-78
2022/09/13 08:13:41;;;;;;;6.80;3.95;;;17.70;99.90;;;;;;5051261;28;20397;-78
2022/09/13 08:16:07;;;;;;;7.00;3.90;;;17.90;99.90;;;;;;5052086;28;20033;-78
2022/09/13 08:18:33;;;;;;;4.43;2.95;;;18.10;99.90;;;;;;5054498;28;20025;-78
2022/09/13 08:21:00;;;;;;;4.57;3.28;;;18.30;99.90;;;;;;5050415;28;20033;-78
2022/09/13 08:23:27;;;;;;;5.15;3.25;;;18.60;99.90;;;;;;5051360;28;20041;-79
2022/09/13 08:25:53;;;;;;;5.28;3.33;;;18.80;99.90;;;;;;5051571;28;20037;-78
2022/09/13 08:28:21;;;;;;;4.25;3.30;;;19.00;99.90;;;;;;5051670;28;20032;-78
2022/09/13 08:30:47;;;;;;;5.85;4.03;;;19.20;99.90;;;;;;5049999;28;20037;-78
2022/09/13 08:33:14;;;;;;;5.07;3.65;;;19.40;99.90;;;;;;5051257;28;20044;-78
2022/09/13 08:35:48;;;;;;;6.82;4.35;;;19.30;99.90;;;;;;5051004;28;20037;-78
2022/09/13 08:38:14;;;;;;;6.95;4.18;;;19.30;99.90;;;;;;5051588;28;20462;-78
2022/09/13 08:40:45;;;;;;;6.03;3.85;;;19.00;99.90;;;;;;5049657;28;20029;-78
2022/09/13 08:43:32;;;;;;;6.28;4.30;;;19.10;99.90;;;;;;5053368;28;20037;-78
2022/09/13 08:46:09;;;;;;;8.35;3.95;;;19.30;99.90;;;;;;5052195;28;20048;-77
2022/09/13 08:48:43;;;;;;;10.40;4.03;;;19.40;99.90;;;;;;5055084;28;20048;-77
2022/09/13 08:51:43;;;;;;;5.03;3.88;;;19.40;99.90;;;;;;5035702;28;20049;-77
2022/09/13 08:54:17;;;;;;;7.32;3.92;;;19.50;99.90;;;;;;5055575;28;20398;-77
2022/09/13 08:56:45;;;;;;;6.70;3.83;;;19.70;99.90;;;;;;5036733;28;20048;-77
2022/09/13 08:59:11;;;;;;;4.55;3.90;;;19.80;99.90;;;;;;5054914;28;20394;-77
2022/09/13 09:01:43;;;;;;;7.45;3.95;;;20.10;99.90;;;;;;5053089;28;20113;-77
2022/09/13 09:04:12;;;;;;;5.53;4.40;;;20.30;99.90;;;;;;5055381;28;20041;-77
2022/09/13 09:06:39;;;;;;;6.10;3.67;;;20.20;99.90;;;;;;5054655;28;20036;-76
2022/09/13 09:09:18;;;;;;;10.73;5.03;;;20.30;99.90;;;;;;5041493;28;20033;-77
2022/09/13 09:12:00;;;;;;;6.68;4.35;;;20.60;98.90;;;;;;5057282;28;20046;-77
2022/09/13 09:14:32;;;;;;;5.50;3.65;;;21.10;98.90;;;;;;5059555;28;20037;-77
2022/09/13 09:17:18;;;;;;;7.60;3.50;;;21.70;96.00;;;;;;5068512;28;20047;-77
2022/09/13 09:19:52;;;;;;;9.00;5.03;;;21.80;93.60;;;;;;5060023;28;20044;-77
2022/09/13 09:22:23;;;;;;;7.05;5.00;;;21.60;94.00;;;;;;5053494;28;20044;-77
2022/09/13 09:24:53;;;;;;;10.55;4.78;;;21.90;93.30;;;;;;5054876;28;20035;-77
2022/09/13 09:27:20;;;;;;;8.48;4.65;;;21.60;92.20;;;;;;5055354;28;20455;-78
2022/09/13 09:29:53;;;;;;;8.00;5.53;;;21.60;92.80;;;;;;5054121;28;20037;-77
2022/09/13 09:32:37;;;;;;;9.65;5.55;;;21.00;94.00;;;;;;5053381;28;20040;-77
2022/09/13 09:35:37;;;;;;;9.38;4.95;;;20.90;93.50;;;;;;5054284;28;20052;-77
2022/09/13 09:38:30;;;;;;;9.00;4.67;;;20.90;94.40;;;;;;5034356;28;20045;-77
2022/09/13 09:41:05;;;;;;;6.57;4.38;;;21.10;93.40;;;;;;5035184;28;20036;-77
2022/09/13 09:43:38;;;;;;;7.57;3.72;;;21.40;92.30;;;;;;5047511;28;20037;-77
2022/09/13 09:46:07;;;;;;;5.55;3.70;;;21.30;92.30;;;;;;5030702;28;20052;-77
2022/09/13 09:48:44;;;;;;;6.63;4.20;;;21.50;91.30;;;;;;5036430;28;20029;-77
2022/09/13 09:51:13;;;;;;;4.65;3.58;;;21.80;92.30;;;;;;5053080;28;20040;-76
2022/09/13 09:53:44;;;;;;;8.45;4.15;;;22.30;90.30;;;;;;5052613;28;20036;-77
2022/09/13 09:56:16;;;;;;;6.30;4.30;;;22.40;89.90;;;;;;5054175;28;20041;-77
2022/09/13 09:58:45;;;;;;;6.20;4.65;;;22.30;88.40;;;;;;5053394;28;20091;-77
2022/09/13 10:01:26;;;;;;;9.98;5.50;;;22.10;90.30;;;;;;5054942;28;20032;-77
2022/09/13 10:04:01;;;;;;;5.90;3.75;;;22.20;89.70;;;;;;5053782;28;20044;-76
2022/09/13 10:06:29;;;;;;;9.82;4.55;;;22.10;90.60;;;;;;5058766;28;20402;-78
2022/09/13 10:09:05;;;;;;;5.82;3.78;;;22.20;90.80;;;;;;5040225;28;20386;-77
2022/09/13 10:11:41;;;;;;;6.55;4.00;;;22.40;89.00;;;;;;5034653;28;20526;-77
2022/09/13 10:14:27;;;;;;;5.90;4.00;;;22.50;89.60;;;;;;5053792;28;20043;-76
2022/09/13 10:17:05;;;;;;;6.88;4.25;;;22.30;85.80;;;;;;5053557;28;20045;-76
2022/09/13 10:19:32;;;;;;;6.28;3.47;;;21.90;88.60;;;;;;5053485;28;20044;-78
2022/09/13 10:22:01;;;;;;;4.88;3.55;;;22.20;90.10;;;;;;5034721;28;20025;-77
2022/09/13 10:24:28;;;;;;;8.43;3.63;;;22.50;87.80;;;;;;5047291;28;20041;-78
2022/09/13 10:26:55;;;;;;;5.97;4.20;;;22.80;86.60;;;;;;5046489;28;20025;-77
2022/09/13 10:29:23;;;;;;;9.73;4.53;;;22.80;85.80;;;;;;5053604;28;20040;-77
2022/09/13 10:31:52;;;;;;;6.38;4.43;;;23.00;86.30;;;;;;5030496;28;20041;-77
2022/09/13 10:34:30;;;;;;;12.50;3.97;;;23.30;84.70;;;;;;5048754;28;20524;-77
2022/09/13 10:37:13;;;;;;;5.03;3.20;;;23.40;84.30;;;;;;5054810;28;20039;-77
2022/09/13 10:40:04;;;;;;;4.68;3.42;;;23.40;85.80;;;;;;5053047;28;20037;-77
2022/09/13 10:42:30;;;;;;;8.20;4.03;;;23.40;82.20;;;;;;5052422;28;20120;-77
2022/09/13 10:45:00;;;;;;;7.25;3.75;;;23.60;83.40;;;;;;5053357;28;20528;-78
2022/09/13 10:47:33;;;;;;;6.60;4.22;;;23.70;83.10;;;;;;5053462;28;20032;-77
2022/09/13 10:50:17;;;;;;;4.18;3.20;;;23.30;82.20;;;;;;5052833;28;20390;-77
2022/09/13 10:52:46;;;;;;;4.90;3.47;;;23.20;83.30;;;;;;5053405;28;20033;-77
2022/09/13 10:55:18;;;;;;;5.57;4.18;;;23.20;84.00;;;;;;5052785;28;20041;-77
2022/09/13 10:57:46;;;;;;;4.88;4.32;;;22.90;84.70;;;;;;5052320;28;20373;-77
2022/09/13 11:00:19;;;;;;;6.68;4.60;;;22.70;86.60;;;;;;5033813;28;20049;-77
2022/09/13 11:02:57;;;;;;;7.10;4.57;;;22.50;87.30;;;;;;5052826;28;20029;-77
2022/09/13 11:05:31;;;;;;;7.60;4.18;;;22.70;90.00;;;;;;5052769;28;20029;-77
2022/09/13 11:08:19;;;;;;;6.20;3.90;;;22.80;86.20;;;;;;5051656;28;20052;-77
2022/09/13 11:11:00;;;;;;;6.35;4.43;;;22.90;85.80;;;;;;5050617;28;20033;-77
2022/09/13 11:13:47;;;;;;;7.18;3.88;;;22.50;88.10;;;;;;5034889;28;20044;-77
2022/09/13 11:16:44;;;;;;;5.55;4.07;;;22.60;88.90;;;;;;5052582;28;20044;-77
2022/09/13 11:19:31;;;;;;;9.48;5.20;;;22.60;86.50;;;;;;5052607;28;20502;-77
2022/09/13 11:22:15;;;;;;;5.85;4.07;;;22.40;88.30;;;;;;5050838;28;20104;-77
2022/09/13 11:24:48;;;;;;;7.65;4.03;;;22.40;89.80;;;;;;5034460;28;20041;-77
2022/09/13 11:27:26;;;;;;;5.13;3.90;;;22.20;90.30;;;;;;5052691;28;20032;-77
2022/09/13 11:30:10;;;;;;;5.90;3.90;;;22.20;90.50;;;;;;5051527;28;20031;-78
2022/09/13 11:32:46;;;;;;;6.80;3.70;;;22.20;90.40;;;;;;5052390;28;20469;-77
2022/09/13 11:35:32;;;;;;;5.00;3.90;;;22.20;90.20;;;;;;5052505;28;20055;-77
2022/09/13 11:38:05;;;;;;;6.75;3.60;;;22.10;90.30;;;;;;5051994;28;20037;-76
2022/09/13 11:40:54;;;;;;;5.00;3.70;;;22.10;90.00;;;;;;5033491;28;20033;-76
2022/09/13 11:43:53;;;;;;;8.18;3.38;;;22.10;89.80;;;;;;5038127;28;20140;-77
2022/09/13 11:46:25;;;;;;;5.45;3.13;;;22.00;88.80;;;;;;5052299;28;20036;-77
2022/09/13 11:49:19;;;;;;;6.20;2.85;;;21.90;89.40;;;;;;5051755;28;20033;-77
2022/09/13 11:51:47;;;;;;;4.00;3.55;;;21.90;91.40;;;;;;5050125;28;20470;-79
2022/09/13 11:54:35;;;;;;;4.68;3.25;;;21.70;90.80;;;;;;5051938;28;20041;-79
2022/09/13 11:57:08;;;;;;;5.63;2.70;;;21.60;92.10;;;;;;5052242;28;20055;-78
2022/09/13 11:59:42;;;;;;;8.07;3.47;;;21.70;92.40;;;;;;5051762;28;20045;-78
2022/09/13 12:02:34;;;;;;;4.00;2.88;;;21.70;92.60;;;;;;5050296;28;20359;-78
2022/09/13 12:05:21;;;;;;;4.88;3.22;;;21.70;93.50;;;;;;5051660;28;20044;-79
2022/09/13 12:07:56;;;;;;;4.53;3.03;;;21.60;98.30;;;;;;5053760;28;20041;-78
2022/09/13 12:10:55;;;;;;;3.72;2.80;;;21.60;99.70;;;;;;5053273;28;20038;-78
2022/09/13 12:13:29;;;;;;;6.97;2.70;;;21.60;99.20;;;;;;5051854;28;20037;-79
2022/09/13 12:16:00;;;;;;;6.45;3.22;;;21.60;99.20;;;;;;5051511;28;20033;-79
2022/09/13 12:18:36;;;;;;;6.68;2.78;;;21.70;96.90;;;;;;5055915;28;20037;-79
2022/09/13 12:21:13;;;;;;;5.68;3.10;;;21.70;97.00;;;;;;5054430;28;20029;-79
2022/09/13 12:24:00;;;;;;;7.00;2.75;;;21.70;96.40;;;;;;5055311;28;20044;-79
2022/09/13 12:26:40;;;;;;;2.67;2.03;;;21.70;95.40;;;;;;5037505;28;20063;-79
2022/09/13 12:29:33;;;;;;;;;;;21.80;97.10;;;;;;5056203;28;20135;-76
2022/09/13 12:32:03;;;;;;;3.72;2.20;;;21.70;97.10;;;;;;5031552;28;19908;-78
2022/09/13 12:34:55;;;;;;;7.45;2.50;;;21.80;96.30;;;;;;5018821;28;20037;-76
2022/09/13 12:37:33;;;;;;;4.50;2.13;;;21.90;94.70;;;;;;5049720;28;20037;-78
2022/09/13 12:40:42;;;;;;;3.20;2.00;;;22.00;95.20;;;;;;5053898;28;20033;-79
2022/09/13 12:43:18;;;;;;;4.10;2.10;;;22.20;93.50;;;;;;4974179;28;20042;-79
2022/09/13 12:45:47;;;;;;;5.53;2.30;;;22.40;92.80;;;;;;4976741;28;20035;-77
2022/09/13 12:48:49;;;;;;;3.47;1.67;;;22.50;93.30;;;;;;5024307;28;20045;-76
2022/09/13 12:51:34;;;;;;;4.50;1.80;;;22.70;92.90;;;;;;5014234;28;20048;-77
2022/09/13 12:54:33;;;;;;;6.30;2.10;;;22.70;91.90;;;;;;5054763;28;20033;-78
2022/09/13 12:57:21;;;;;;;10.65;2.65;;;22.70;92.50;;;;;;5055090;28;20044;-78
2022/09/13 13:00:02;;;;;;;4.28;2.00;;;22.70;91.10;;;;;;5054995;28;20049;-78
2022/09/13 13:02:33;;;;;;;7.45;2.13;;;22.70;89.90;;;;;;5055659;28;20037;-78
2022/09/13 13:05:17;;;;;;;5.35;2.75;;;22.80;91.10;;;;;;5054839;28;20045;-77
2022/09/13 13:07:51;;;;;;;6.35;2.13;;;23.00;90.20;;;;;;5054685;28;20462;-77
2022/09/13 13:10:57;;;;;;;4.25;2.42;;;23.10;90.00;;;;;;5053540;28;20052;-77
2022/09/13 13:13:38;;;;;;;2.92;1.73;;;23.40;87.60;;;;;;5029455;28;20052;-77
2022/09/13 13:16:21;;;;;;;;;;;23.70;85.10;;;;;;5055266;28;20390;-77
2022/09/13 13:18:50;;;;;;;3.35;1.90;;;23.90;84.60;;;;;;5054538;28;20277;-77
2022/09/13 13:21:38;;;;;;;3.72;2.30;;;23.90;82.70;;;;;;5053787;28;20052;-77
2022/09/13 13:24:27;;;;;;;2.90;2.03;;;23.90;84.30;;;;;;5056187;28;20490;-76
2022/09/13 13:26:56;;;;;;;3.35;1.75;;;24.10;81.00;;;;;;5050208;28;20378;-77